createdAt,value
2019-01-15T00:00:25.371Z,0.67
2019-01-15T00:02:53.777Z,0.97
2019-01-15T00:05:22.152Z,0.50
2019-01-15T00:07:50.725Z,0.63
2019-01-15T00:10:19.123Z,0.97
2019-01-15T00:12:47.706Z,0.40
2019-01-15T00:15:16.135Z,0.60
2019-01-15T00:17:44.454Z,0.77
2019-01-15T00:20:12.990Z,1.07
2019-01-15T00:23:00.733Z,0.57
2019-01-15T00:25:29.206Z,1.40
2019-01-15T00:27:57.584Z,0.30
2019-01-15T00:30:26.071Z,0.80
2019-01-15T00:32:54.575Z,0.70
2019-01-15T00:35:22.998Z,0.63
2019-01-15T00:37:51.402Z,0.73
2019-01-15T00:40:19.847Z,0.40
2019-01-15T00:42:48.482Z,0.40
2019-01-15T00:45:16.930Z,0.77
2019-01-15T00:47:45.276Z,0.40
2019-01-15T00:50:14.063Z,0.13
2019-01-15T00:52:42.587Z,0.30
2019-01-15T00:55:11.278Z,0.70
2019-01-15T00:57:39.714Z,0.90
2019-01-15T01:00:15.665Z,0.40
2019-01-15T01:02:44.143Z,0.87
2019-01-15T01:05:13.640Z,0.97
2019-01-15T01:07:42.487Z,0.73
2019-01-15T01:10:11.045Z,0.70
2019-01-15T01:12:39.546Z,0.50
2019-01-15T01:15:08.859Z,0.87
2019-01-15T01:17:37.296Z,0.43
2019-01-15T01:20:06.059Z,0.40
2019-01-15T01:22:34.694Z,0.50
2019-01-15T01:25:03.310Z,0.97
2019-01-15T01:27:31.738Z,0.93
2019-01-15T01:30:00.264Z,0.30
2019-01-15T01:32:28.638Z,0.70
2019-01-15T01:34:56.978Z,0.83
2019-01-15T01:37:25.427Z,0.60
2019-01-15T01:39:53.770Z,0.60
2019-01-15T01:42:22.109Z,0.60
2019-01-15T01:44:50.518Z,0.30
2019-01-15T01:47:18.861Z,0.50
2019-01-15T01:49:47.459Z,0.40
2019-01-15T01:52:15.822Z,0.20
2019-01-15T01:54:44.251Z,0.30
2019-01-15T01:57:12.626Z,0.93
2019-01-15T01:59:40.978Z,0.53
2019-01-15T02:02:09.457Z,0.80
2019-01-15T02:04:37.815Z,0.23
2019-01-15T02:07:06.189Z,0.43
2019-01-15T02:09:34.533Z,1.43
2019-01-15T02:12:02.905Z,0.50
2019-01-15T02:14:31.446Z,0.40
2019-01-15T02:16:59.858Z,0.93
2019-01-15T02:19:28.501Z,1.40
2019-01-15T02:21:56.983Z,0.80
2019-01-15T02:24:25.406Z,0.83
2019-01-15T02:26:53.830Z,0.83
2019-01-15T02:29:22.185Z,0.47
2019-01-15T02:31:50.707Z,0.30
2019-01-15T02:34:19.203Z,0.37
2019-01-15T02:36:47.680Z,0.30
2019-01-15T02:39:16.114Z,0.60
2019-01-15T02:41:44.619Z,0.77
2019-01-15T02:44:12.963Z,0.07
2019-01-15T02:46:41.308Z,0.50
2019-01-15T02:49:09.790Z,1.03
2019-01-15T02:51:38.173Z,0.80
2019-01-15T02:54:06.618Z,0.50
2019-01-15T02:56:35.021Z,0.40
2019-01-15T02:59:03.481Z,0.30
2019-01-15T03:01:32.054Z,0.57
2019-01-15T03:04:00.394Z,0.10
2019-01-15T03:06:29.027Z,0.93
2019-01-15T03:08:57.450Z,0.37
2019-01-15T03:11:25.892Z,0.57
2019-01-15T03:13:54.264Z,0.33
2019-01-15T03:16:22.663Z,0.60
2019-01-15T03:18:51.026Z,0.33
2019-01-15T03:21:19.423Z,0.20
2019-01-15T03:23:47.876Z,0.57
2019-01-15T03:26:16.334Z,0.40
2019-01-15T03:28:44.706Z,0.60
2019-01-15T03:31:13.214Z,0.70
2019-01-15T03:33:41.571Z,0.20
2019-01-15T03:36:10.002Z,0.20
2019-01-15T03:38:38.338Z,0.77
2019-01-15T03:41:06.718Z,0.50
2019-01-15T03:43:35.137Z,0.77
2019-01-15T03:46:04.424Z,0.33
2019-01-15T03:48:33.235Z,0.37
2019-01-15T03:51:01.690Z,0.40
2019-01-15T03:53:30.181Z,0.20
2019-01-15T03:55:58.508Z,0.47
2019-01-15T03:58:26.902Z,0.23
2019-01-15T04:00:55.339Z,0.13
2019-01-15T04:03:23.789Z,0.33
2019-01-15T04:05:52.247Z,0.30
2019-01-15T04:08:20.752Z,0.30
2019-01-15T04:10:49.114Z,0.00
2019-01-15T04:13:17.443Z,0.53
2019-01-15T04:15:46.046Z,0.30
2019-01-15T04:18:14.522Z,0.67
2019-01-15T04:20:43.000Z,0.40
2019-01-15T04:23:11.510Z,0.73
2019-01-15T04:25:39.891Z,0.30
2019-01-15T04:28:08.245Z,0.30
2019-01-15T04:30:36.627Z,0.77
2019-01-15T04:33:05.083Z,0.33
2019-01-15T04:35:33.458Z,0.10
2019-01-15T04:38:01.772Z,0.10
2019-01-15T04:40:30.187Z,0.10
2019-01-15T04:42:58.545Z,0.73
2019-01-15T04:45:26.984Z,0.30
2019-01-15T04:47:55.300Z,0.93
2019-01-15T04:50:23.757Z,0.97
2019-01-15T04:53:01.342Z,0.30
2019-01-15T04:55:29.810Z,0.57
2019-01-15T04:57:58.206Z,0.40
2019-01-15T05:00:26.665Z,0.30
2019-01-15T05:02:56.867Z,0.10
2019-01-15T05:05:25.252Z,0.23
2019-01-15T05:07:53.651Z,0.30
2019-01-15T05:10:22.026Z,0.10
2019-01-15T05:12:50.593Z,0.20
2019-01-15T05:15:19.084Z,0.17
2019-01-15T05:17:47.474Z,0.40
2019-01-15T05:20:16.180Z,0.23
2019-01-15T05:22:44.811Z,0.23
2019-01-15T05:25:14.604Z,0.00
2019-01-15T05:27:42.931Z,0.23
2019-01-15T05:30:13.569Z,0.53
2019-01-15T05:32:42.006Z,0.33
2019-01-15T05:35:10.468Z,1.07
2019-01-15T05:37:38.793Z,0.20
2019-01-15T05:40:07.992Z,0.30
2019-01-15T05:42:36.414Z,0.50
2019-01-15T05:45:05.462Z,0.47
2019-01-15T05:47:34.002Z,0.20
2019-01-15T05:50:02.598Z,0.50
2019-01-15T05:52:30.994Z,0.63
2019-01-15T05:54:59.330Z,0.73
2019-01-15T05:57:45.021Z,0.40
2019-01-15T06:00:13.425Z,0.40
2019-01-15T06:02:41.911Z,0.53
2019-01-15T06:05:10.506Z,0.50
2019-01-15T06:07:38.837Z,0.60
2019-01-15T06:10:08.762Z,1.03
2019-01-15T06:12:37.078Z,0.93
2019-01-15T06:15:06.160Z,0.60
2019-01-15T06:17:34.703Z,0.50
2019-01-15T06:20:03.546Z,1.03
2019-01-15T06:22:31.970Z,0.63
2019-01-15T06:25:00.397Z,1.20
2019-01-15T06:27:28.719Z,0.90
2019-01-15T06:29:57.069Z,1.13
2019-01-15T06:32:25.524Z,0.87
2019-01-15T06:34:53.985Z,1.00
2019-01-15T06:37:22.323Z,1.13
2019-01-15T06:39:50.710Z,1.97
2019-01-15T06:42:19.265Z,1.43
2019-01-15T06:44:47.570Z,1.13
2019-01-15T06:47:15.898Z,1.53
2019-01-15T06:49:44.271Z,1.20
2019-01-15T06:52:12.692Z,1.43
2019-01-15T06:54:41.146Z,1.60
2019-01-15T06:57:09.526Z,1.37
2019-01-15T06:59:38.002Z,1.90
2019-01-15T07:02:06.333Z,1.80
2019-01-15T07:04:34.788Z,1.80
2019-01-15T07:07:03.207Z,2.30
2019-01-15T07:09:31.591Z,1.80
2019-01-15T07:11:59.938Z,1.33
2019-01-15T07:14:28.257Z,1.47
2019-01-15T07:16:56.589Z,2.03
2019-01-15T07:19:24.979Z,1.67
2019-01-15T07:21:53.378Z,2.37
2019-01-15T07:24:21.782Z,2.00
2019-01-15T07:26:50.115Z,2.20
2019-01-15T07:29:18.554Z,2.27
2019-01-15T07:31:46.892Z,1.80
2019-01-15T07:34:15.249Z,1.70
2019-01-15T07:36:43.560Z,1.80
2019-01-15T07:39:12.003Z,1.53
2019-01-15T07:41:40.355Z,1.97
2019-01-15T07:44:09.134Z,1.83
2019-01-15T07:46:37.546Z,2.60
2019-01-15T07:49:05.998Z,2.13
2019-01-15T07:51:34.357Z,2.90
2019-01-15T07:54:02.713Z,2.57
2019-01-15T07:56:31.029Z,2.43
2019-01-15T07:58:59.478Z,2.77
2019-01-15T08:01:28.097Z,2.57
2019-01-15T08:03:56.534Z,2.73
2019-01-15T08:06:24.937Z,3.17
2019-01-15T08:08:53.299Z,2.00
2019-01-15T08:11:21.678Z,3.13
2019-01-15T08:13:50.083Z,1.87
2019-01-15T08:16:18.776Z,2.67
2019-01-15T08:18:47.092Z,2.83
2019-01-15T08:21:15.472Z,3.00
2019-01-15T08:23:43.830Z,3.13
2019-01-15T08:26:12.249Z,2.13
2019-01-15T08:28:40.679Z,2.93
2019-01-15T08:31:08.997Z,2.83
2019-01-15T08:33:37.393Z,3.13
2019-01-15T08:36:05.902Z,3.47
2019-01-15T08:38:34.287Z,3.43
2019-01-15T08:41:02.906Z,2.37
2019-01-15T08:43:31.216Z,2.63
2019-01-15T08:45:59.569Z,3.17
2019-01-15T08:48:30.113Z,2.80
2019-01-15T08:50:58.617Z,2.60
2019-01-15T08:53:27.046Z,2.63
2019-01-15T08:55:57.334Z,2.87
2019-01-15T08:58:25.837Z,3.13
2019-01-15T09:00:54.288Z,2.80
2019-01-15T09:03:22.698Z,2.93
2019-01-15T09:05:51.185Z,3.27
2019-01-15T09:08:19.586Z,2.87
2019-01-15T09:10:48.146Z,2.77
2019-01-15T09:13:16.558Z,3.90
2019-01-15T09:15:45.002Z,3.57
2019-01-15T09:18:13.434Z,4.57
2019-01-15T09:20:41.948Z,4.03
2019-01-15T09:23:10.409Z,4.57
2019-01-15T09:25:38.861Z,3.83
2019-01-15T09:28:07.194Z,3.43
2019-01-15T09:30:35.593Z,3.17
2019-01-15T09:33:04.752Z,3.33
2019-01-15T09:35:33.217Z,3.60
2019-01-15T09:38:02.127Z,3.43
2019-01-15T09:40:30.626Z,3.67
2019-01-15T09:42:58.972Z,3.97
2019-01-15T09:45:27.398Z,3.27
2019-01-15T09:48:07.856Z,3.67
2019-01-15T09:50:36.329Z,3.97
2019-01-15T09:53:05.213Z,4.63
2019-01-15T09:55:35.470Z,3.83
2019-01-15T09:58:04.067Z,3.53
2019-01-15T10:00:32.539Z,4.07
2019-01-15T10:03:00.927Z,4.13
2019-01-15T10:05:29.433Z,3.60
2019-01-15T10:07:57.789Z,3.43
2019-01-15T10:10:26.382Z,3.33
2019-01-15T10:12:54.797Z,4.17
2019-01-15T10:15:23.213Z,3.57
2019-01-15T10:17:51.612Z,4.90
2019-01-15T10:20:20.199Z,3.43
2019-01-15T10:22:54.881Z,3.87
2019-01-15T10:25:25.714Z,4.37
2019-01-15T10:27:55.236Z,4.70
2019-01-15T10:30:38.133Z,4.23
2019-01-15T10:33:14.642Z,3.20
2019-01-15T10:35:52.799Z,3.10
2019-01-15T10:38:23.958Z,4.37
2019-01-15T10:41:01.478Z,3.93
2019-01-15T10:43:30.819Z,4.47
2019-01-15T10:45:59.319Z,4.07
2019-01-15T10:48:27.927Z,3.27
2019-01-15T10:50:56.322Z,4.00
2019-01-15T10:53:25.230Z,4.97
2019-01-15T10:55:53.614Z,4.77
2019-01-15T10:58:22.068Z,3.37
2019-01-15T11:00:50.494Z,2.50
2019-01-15T11:03:18.905Z,4.27
2019-01-15T11:05:53.701Z,3.30
2019-01-15T11:08:22.085Z,3.90
2019-01-15T11:10:50.658Z,2.93
2019-01-15T11:13:19.020Z,4.27
2019-01-15T11:15:47.510Z,3.10
2019-01-15T11:18:15.835Z,3.23
2019-01-15T11:20:44.262Z,3.60
2019-01-15T11:23:12.642Z,4.20
2019-01-15T11:25:41.019Z,3.80
2019-01-15T11:28:09.555Z,3.00
2019-01-15T11:30:38.055Z,2.97
2019-01-15T11:33:06.384Z,3.30
2019-01-15T11:35:35.580Z,3.27
2019-01-15T11:38:04.110Z,2.60
2019-01-15T11:40:32.453Z,2.73
2019-01-15T11:43:00.773Z,2.77
2019-01-15T11:45:29.179Z,3.37
2019-01-15T11:48:03.674Z,2.77
2019-01-15T11:50:32.044Z,2.77
2019-01-15T11:53:00.422Z,2.90
2019-01-15T11:55:28.930Z,3.03
2019-01-15T11:57:57.391Z,2.07
2019-01-15T12:00:42.618Z,1.90
2019-01-15T12:03:18.731Z,2.50
2019-01-15T12:05:58.179Z,2.93
2019-01-15T12:08:39.373Z,2.90
2019-01-15T12:11:29.689Z,2.60
2019-01-15T12:14:20.081Z,2.90
2019-01-15T12:17:08.765Z,2.37
2019-01-15T12:19:43.646Z,2.60
2019-01-15T12:22:39.851Z,2.73
2019-01-15T12:25:26.306Z,2.20
2019-01-15T12:28:16.879Z,2.57
2019-01-15T12:31:01.614Z,2.07
2019-01-15T12:33:47.721Z,1.77
2019-01-15T12:36:40.231Z,2.87
2019-01-15T12:39:26.054Z,2.63
2019-01-15T12:42:12.216Z,2.30
2019-01-15T12:45:02.962Z,2.80
2019-01-15T12:47:51.722Z,1.77
2019-01-15T12:50:42.634Z,1.93
2019-01-15T12:53:42.279Z,2.13
2019-01-15T12:56:23.576Z,1.87
2019-01-15T12:59:08.481Z,2.07
2019-01-15T13:01:56.565Z,1.77
2019-01-15T13:04:42.102Z,2.57
2019-01-15T13:07:38.987Z,1.70
2019-01-15T13:10:26.418Z,1.33
2019-01-15T13:13:13.074Z,2.97
2019-01-15T13:15:51.645Z,2.30
2019-01-15T13:18:48.888Z,2.03
2019-01-15T13:21:35.251Z,2.50
2019-01-15T13:24:28.969Z,2.33
2019-01-15T13:27:14.850Z,1.70
2019-01-15T13:30:02.462Z,1.70
2019-01-15T13:33:02.486Z,1.77
2019-01-15T13:36:08.346Z,1.47
2019-01-15T13:38:57.934Z,1.90
2019-01-15T13:41:45.458Z,2.17
2019-01-15T13:44:33.347Z,1.83
2019-01-15T13:47:20.794Z,1.90
2019-01-15T13:50:00.029Z,1.20
2019-01-15T13:52:52.861Z,1.60
2019-01-15T13:55:52.126Z,1.50
2019-01-15T13:58:31.946Z,1.50
2019-01-15T14:01:43.494Z,1.10
2019-01-15T14:04:30.989Z,1.03
2019-01-15T14:07:12.953Z,1.37
2019-01-15T14:10:03.526Z,1.07
2019-01-15T14:12:57.112Z,1.57
2019-01-15T14:15:56.743Z,1.70
2019-01-15T14:18:53.397Z,1.60
2019-01-15T14:21:36.065Z,1.50
2019-01-15T14:24:25.807Z,1.73
2019-01-15T14:27:10.038Z,1.50
2019-01-15T14:29:56.510Z,1.30
2019-01-15T14:32:59.489Z,1.50
2019-01-15T14:35:47.107Z,1.50
2019-01-15T14:38:34.711Z,1.30
2019-01-15T14:41:16.496Z,1.30
2019-01-15T14:44:02.186Z,1.80
2019-01-15T14:46:47.128Z,1.33
2019-01-15T14:49:33.492Z,1.77
2019-01-15T14:52:34.989Z,0.93
2019-01-15T14:55:20.574Z,2.00
2019-01-15T14:58:18.247Z,1.50
2019-01-15T15:01:08.557Z,1.00
2019-01-15T15:03:42.771Z,1.30
2019-01-15T15:06:29.882Z,2.70
2019-01-15T15:09:30.493Z,2.20
2019-01-15T15:12:12.773Z,1.80
2019-01-15T15:15:15.453Z,1.37
2019-01-15T15:17:55.786Z,1.70
2019-01-15T15:20:54.147Z,2.23
2019-01-15T15:24:00.075Z,1.43
2019-01-15T15:26:42.118Z,1.90
2019-01-15T15:29:29.671Z,2.37
2019-01-15T15:32:12.002Z,2.17
2019-01-15T15:34:58.174Z,1.80
2019-01-15T15:37:44.703Z,2.03
2019-01-15T15:40:31.192Z,2.07
2019-01-15T15:43:34.150Z,2.47
2019-01-15T15:46:33.912Z,1.53
2019-01-15T15:49:15.178Z,2.03
2019-01-15T15:52:05.927Z,2.50
2019-01-15T15:54:52.266Z,2.13
2019-01-15T15:57:42.913Z,2.00
2019-01-15T16:00:35.063Z,2.10
2019-01-15T16:03:19.054Z,2.07
2019-01-15T16:06:09.799Z,2.30
2019-01-15T16:08:50.019Z,1.60
2019-01-15T16:11:38.589Z,2.23
2019-01-15T16:14:26.392Z,1.87
2019-01-15T16:17:11.672Z,2.27
2019-01-15T16:19:50.787Z,2.13
2019-01-15T16:22:53.796Z,2.77
2019-01-15T16:25:37.099Z,1.90
2019-01-15T16:28:28.183Z,2.30
2019-01-15T16:31:18.006Z,1.60
2019-01-15T16:34:06.411Z,1.90
2019-01-15T16:36:52.796Z,2.70
2019-01-15T16:39:37.674Z,2.47
2019-01-15T16:42:16.950Z,2.00
2019-01-15T16:45:03.255Z,2.40
2019-01-15T16:47:49.677Z,2.07
2019-01-15T16:50:29.690Z,2.13
2019-01-15T16:53:09.995Z,1.53
2019-01-15T16:55:56.638Z,2.33
2019-01-15T16:58:40.597Z,1.60
2019-01-15T17:01:26.910Z,2.17
2019-01-15T17:04:14.013Z,1.67
2019-01-15T17:06:57.269Z,2.23
2019-01-15T17:09:41.321Z,2.20
2019-01-15T17:12:40.023Z,2.27
2019-01-15T17:15:33.762Z,2.10
2019-01-15T17:18:22.117Z,1.67
2019-01-15T17:21:16.673Z,1.90
2019-01-15T17:24:16.770Z,2.23
2019-01-15T17:27:02.933Z,1.80
2019-01-15T17:29:51.089Z,2.00
2019-01-15T17:32:41.820Z,2.50
2019-01-15T17:35:32.242Z,1.80
2019-01-15T17:38:28.164Z,2.00
2019-01-15T17:41:18.823Z,2.03
2019-01-15T17:44:05.053Z,2.53
2019-01-15T17:46:54.826Z,2.90
2019-01-15T17:49:51.510Z,2.37
2019-01-15T17:52:43.627Z,1.80
2019-01-15T17:55:26.390Z,2.60
2019-01-15T17:58:18.395Z,2.57
2019-01-15T18:00:57.609Z,2.00
2019-01-15T18:03:56.489Z,2.53
2019-01-15T18:06:51.461Z,1.93
2019-01-15T18:09:38.946Z,1.90
2019-01-15T18:12:29.476Z,2.23
2019-01-15T18:15:28.242Z,2.00
2019-01-15T18:18:12.931Z,2.10
2019-01-15T18:21:13.763Z,2.30
2019-01-15T18:24:01.392Z,1.83
2019-01-15T18:26:57.834Z,2.30
2019-01-15T18:29:45.615Z,2.17
2019-01-15T18:32:42.363Z,1.97
2019-01-15T18:35:35.381Z,1.87
2019-01-15T18:38:28.856Z,1.90
2019-01-15T18:41:19.252Z,2.13
2019-01-15T18:44:14.141Z,2.13
2019-01-15T18:47:03.890Z,2.40
2019-01-15T18:49:47.876Z,2.47
2019-01-15T18:52:34.635Z,2.40
2019-01-15T18:55:37.881Z,1.97
2019-01-15T18:58:24.418Z,2.70
2019-01-15T19:01:08.675Z,2.80
2019-01-15T19:03:58.224Z,2.93
2019-01-15T19:06:58.186Z,3.10
2019-01-15T19:09:44.493Z,2.77
2019-01-15T19:12:23.874Z,2.73
2019-01-15T19:15:20.502Z,3.80
2019-01-15T19:18:07.081Z,3.77
2019-01-15T19:20:53.774Z,3.50
2019-01-15T19:23:42.997Z,3.20
2019-01-15T19:26:26.763Z,3.57
2019-01-15T19:29:10.783Z,2.87
2019-01-15T19:31:57.062Z,4.03
2019-01-15T19:34:40.234Z,4.03
2019-01-15T19:37:27.774Z,4.13
2019-01-15T19:40:10.979Z,4.57
2019-01-15T19:43:00.771Z,3.50
2019-01-15T19:45:47.344Z,4.83
2019-01-15T19:48:40.975Z,3.33
2019-01-15T19:51:28.770Z,4.40
2019-01-15T19:54:14.401Z,4.70
2019-01-15T19:57:04.836Z,4.90
2019-01-15T19:59:58.553Z,3.23
2019-01-15T20:02:46.239Z,5.63
2019-01-15T20:05:40.237Z,4.40
2019-01-15T20:08:26.675Z,3.67
2019-01-15T20:11:16.631Z,4.63
2019-01-15T20:14:13.123Z,4.77
2019-01-15T20:16:59.933Z,3.67
2019-01-15T20:19:53.450Z,4.40
2019-01-15T20:22:30.733Z,3.97
2019-01-15T20:25:11.648Z,3.73
2019-01-15T20:28:14.657Z,4.50
2019-01-15T20:31:05.146Z,4.23
2019-01-15T20:33:56.587Z,3.90
2019-01-15T20:36:43.088Z,3.87
2019-01-15T20:39:36.756Z,3.63
2019-01-15T20:42:29.755Z,3.20
2019-01-15T20:45:16.415Z,6.87
2019-01-15T20:48:04.292Z,5.90
2019-01-15T20:50:44.537Z,4.10
2019-01-15T20:53:24.738Z,4.10
2019-01-15T20:56:12.391Z,3.83
2019-01-15T20:58:59.943Z,4.47
2019-01-15T21:01:36.511Z,3.80
2019-01-15T21:04:22.735Z,4.10
2019-01-15T21:07:16.429Z,4.03
2019-01-15T21:10:00.035Z,3.43
2019-01-15T21:12:46.590Z,3.27
2019-01-15T21:15:34.258Z,3.67
2019-01-15T21:18:20.777Z,4.27
2019-01-15T21:21:11.266Z,3.67
2019-01-15T21:23:53.985Z,3.30
2019-01-15T21:26:39.104Z,4.30
2019-01-15T21:29:41.721Z,4.60
2019-01-15T21:32:30.634Z,4.10
2019-01-15T21:35:17.924Z,4.40
2019-01-15T21:38:04.466Z,4.60
2019-01-15T21:40:54.987Z,4.40
2019-01-15T21:43:41.106Z,3.37
2019-01-15T21:46:20.150Z,4.00
2019-01-15T21:49:06.227Z,3.90
2019-01-15T21:51:51.953Z,3.53
2019-01-15T21:54:38.495Z,3.77
2019-01-15T21:57:18.538Z,3.77
2019-01-15T22:00:14.686Z,4.23
2019-01-15T22:03:02.223Z,3.70
2019-01-15T22:05:48.718Z,3.90
2019-01-15T22:08:41.577Z,4.70
2019-01-15T22:11:44.501Z,4.47
2019-01-15T22:14:30.613Z,3.53
2019-01-15T22:17:29.408Z,4.00
2019-01-15T22:20:23.058Z,5.43
2019-01-15T22:23:03.955Z,5.30
2019-01-15T22:25:52.825Z,5.57
2019-01-15T22:28:43.810Z,3.87
2019-01-15T22:31:30.498Z,4.60
2019-01-15T22:34:24.258Z,4.93
2019-01-15T22:37:10.657Z,4.33
2019-01-15T22:39:49.298Z,5.17
2019-01-15T22:42:42.966Z,4.33
2019-01-15T22:45:29.239Z,4.53
2019-01-15T22:48:29.927Z,3.37
2019-01-15T22:51:15.780Z,5.33
2019-01-15T22:53:54.341Z,4.10
2019-01-15T22:56:32.749Z,4.77
2019-01-15T22:59:35.754Z,3.33
2019-01-15T23:02:35.807Z,4.00
2019-01-15T23:05:21.287Z,5.30
2019-01-15T23:08:08.954Z,5.13
2019-01-15T23:10:51.720Z,3.83
2019-01-15T23:13:29.655Z,4.93
2019-01-15T23:16:16.890Z,4.40
2019-01-15T23:19:07.687Z,5.53
2019-01-15T23:21:58.170Z,5.07
2019-01-15T23:24:43.014Z,4.37
2019-01-15T23:27:33.558Z,4.50
2019-01-15T23:30:24.487Z,5.27
2019-01-15T23:33:30.317Z,5.37
2019-01-15T23:36:24.070Z,5.30
2019-01-15T23:39:25.512Z,5.00
2019-01-15T23:42:09.842Z,4.30
2019-01-15T23:45:00.726Z,5.20
2019-01-15T23:47:48.239Z,4.13
2019-01-15T23:50:34.694Z,4.10
2019-01-15T23:53:25.401Z,5.20
2019-01-15T23:56:11.577Z,5.37
2019-01-15T23:59:11.579Z,3.70
